sensor_id;sensor_type;location;lat;lon;timestamp;P1;durP1;ratioP1;P2;durP2;ratioP2
6997;SDS011;3539;47.982;12.238;2022-08-19T00:01:53;12.53;;;11.23;;
6997;SDS011;3539;47.982;12.238;2022-08-19T00:04:22;11.67;;;10.67;;
6997;SDS011;3539;47.982;12.238;2022-08-19T00:06:50;12.77;;;11.47;;
6997;SDS011;3539;47.982;12.238;2022-08-19T00:09:19;12.20;;;11.07;;
6997;SDS011;3539;47.982;12.238;2022-08-19T00:11:47;12.70;;;11.47;;
6997;SDS011;3539;47.982;12.238;2022-08-19T00:14:15;12.30;;;11.27;;
6997;SDS011;3539;47.982;12.238;2022-08-19T00:16:44;12.00;;;10.90;;
6997;SDS011;3539;47.982;12.238;2022-08-19T00:19:12;12.03;;;10.93;;
6997;SDS011;3539;47.982;12.238;2022-08-19T00:21:39;12.30;;;11.20;;
6997;SDS011;3539;47.982;12.238;2022-08-19T00:24:10;11.93;;;10.90;;
6997;SDS011;3539;47.982;12.238;2022-08-19T00:26:40;12.20;;;11.00;;
6997;SDS011;3539;47.982;12.238;2022-08-19T00:29:08;13.17;;;11.90;;
6997;SDS011;3539;47.982;12.238;2022-08-19T00:31:36;13.23;;;11.83;;
6997;SDS011;3539;47.982;12.238;2022-08-19T00:34:03;11.63;;;10.53;;
6997;SDS011;3539;47.982;12.238;2022-08-19T00:36:29;12.63;;;11.43;;
6997;SDS011;3539;47.982;12.238;2022-08-19T00:38:57;13.53;;;12.23;;
6997;SDS011;3539;47.982;12.238;2022-08-19T00:41:24;12.20;;;11.10;;
6997;SDS011;3539;47.982;12.238;2022-08-19T00:44:00;13.97;;;12.67;;
6997;SDS011;3539;47.982;12.238;2022-08-19T00:46:27;13.23;;;12.03;;
6997;SDS011;3539;47.982;12.238;2022-08-19T00:48:54;12.00;;;10.90;;
6997;SDS011;3539;47.982;12.238;2022-08-19T00:51:22;11.63;;;10.53;;
6997;SDS011;3539;47.982;12.238;2022-08-19T00:53:52;10.83;;;9.83;;
6997;SDS011;3539;47.982;12.238;2022-08-19T00:56:19;11.77;;;10.70;;
6997;SDS011;3539;47.982;12.238;2022-08-19T00:58:46;12.90;;;11.60;;
6997;SDS011;3539;47.982;12.238;2022-08-19T01:01:14;11.67;;;10.47;;
6997;SDS011;3539;47.982;12.238;2022-08-19T01:03:41;12.40;;;11.23;;
6997;SDS011;3539;47.982;12.238;2022-08-19T01:06:08;11.67;;;10.60;;
6997;SDS011;3539;47.982;12.238;2022-08-19T01:08:34;11.93;;;10.73;;
6997;SDS011;3539;47.982;12.238;2022-08-19T01:11:03;10.27;;;9.37;;
6997;SDS011;3539;47.982;12.238;2022-08-19T01:13:31;10.10;;;9.20;;
6997;SDS011;3539;47.982;12.238;2022-08-19T01:16:00;10.47;;;9.47;;
6997;SDS011;3539;47.982;12.238;2022-08-19T01:18:32;10.40;;;9.50;;
6997;SDS011;3539;47.982;12.238;2022-08-19T01:21:06;11.13;;;10.03;;
6997;SDS011;3539;47.982;12.238;2022-08-19T01:23:37;10.77;;;9.70;;
6997;SDS011;3539;47.982;12.238;2022-08-19T01:26:11;11.50;;;10.33;;
6997;SDS011;3539;47.982;12.238;2022-08-19T01:28:40;11.80;;;10.53;;
6997;SDS011;3539;47.982;12.238;2022-08-19T01:31:08;11.40;;;10.30;;
6997;SDS011;3539;47.982;12.238;2022-08-19T01:33:36;11.50;;;10.40;;
6997;SDS011;3539;47.982;12.238;2022-08-19T01:36:05;10.13;;;9.23;;
6997;SDS011;3539;47.982;12.238;2022-08-19T01:38:35;10.80;;;9.80;;
6997;SDS011;3539;47.982;12.238;2022-08-19T01:41:04;10.97;;;9.90;;
6997;SDS011;3539;47.982;12.238;2022-08-19T01:43:31;10.33;;;9.23;;
6997;SDS011;3539;47.982;12.238;2022-08-19T01:45:58;10.27;;;9.37;;
6997;SDS011;3539;47.982;12.238;2022-08-19T01:48:25;10.93;;;9.93;;
6997;SDS011;3539;47.982;12.238;2022-08-19T01:50:54;11.50;;;10.50;;
6997;SDS011;3539;47.982;12.238;2022-08-19T01:53:21;12.53;;;11.40;;
6997;SDS011;3539;47.982;12.238;2022-08-19T01:55:49;12.50;;;11.40;;
6997;SDS011;3539;47.982;12.238;2022-08-19T01:58:17;13.20;;;11.30;;
6997;SDS011;3539;47.982;12.238;2022-08-19T02:00:46;11.97;;;10.87;;
6997;SDS011;3539;47.982;12.238;2022-08-19T02:03:13;10.80;;;9.70;;
6997;SDS011;3539;47.982;12.238;2022-08-19T02:05:41;9.67;;;8.77;;
6997;SDS011;3539;47.982;12.238;2022-08-19T02:08:09;9.03;;;8.13;;
6997;SDS011;3539;47.982;12.238;2022-08-19T02:10:38;8.83;;;8.03;;
6997;SDS011;3539;47.982;12.238;2022-08-19T02:13:07;8.33;;;7.10;;
6997;SDS011;3539;47.982;12.238;2022-08-19T02:15:34;6.90;;;6.30;;
6997;SDS011;3539;47.982;12.238;2022-08-19T02:18:01;6.87;;;6.27;;
6997;SDS011;3539;47.982;12.238;2022-08-19T02:20:28;6.40;;;5.90;;
6997;SDS011;3539;47.982;12.238;2022-08-19T02:22:54;6.07;;;5.57;;
6997;SDS011;3539;47.982;12.238;2022-08-19T02:25:21;5.93;;;5.40;;
6997;SDS011;3539;47.982;12.238;2022-08-19T02:27:48;5.63;;;5.13;;
6997;SDS011;3539;47.982;12.238;2022-08-19T02:30:16;6.27;;;5.20;;
6997;SDS011;3539;47.982;12.238;2022-08-19T02:32:44;5.43;;;4.97;;
6997;SDS011;3539;47.982;12.238;2022-08-19T02:35:11;5.83;;;5.13;;
6997;SDS011;3539;47.982;12.238;2022-08-19T02:37:38;4.63;;;4.33;;
6997;SDS011;3539;47.982;12.238;2022-08-19T02:40:22;4.53;;;4.20;;
6997;SDS011;3539;47.982;12.238;2022-08-19T02:42:49;5.20;;;4.77;;
6997;SDS011;3539;47.982;12.238;2022-08-19T02:45:17;5.97;;;4.87;;
6997;SDS011;3539;47.982;12.238;2022-08-19T02:47:45;5.00;;;4.60;;
6997;SDS011;3539;47.982;12.238;2022-08-19T02:50:11;4.80;;;4.40;;
6997;SDS011;3539;47.982;12.238;2022-08-19T02:52:39;5.03;;;4.53;;
6997;SDS011;3539;47.982;12.238;2022-08-19T02:55:06;4.90;;;4.50;;
6997;SDS011;3539;47.982;12.238;2022-08-19T02:57:34;4.10;;;3.80;;
6997;SDS011;3539;47.982;12.238;2022-08-19T03:00:03;4.27;;;3.97;;
6997;SDS011;3539;47.982;12.238;2022-08-19T03:02:32;3.73;;;3.50;;
6997;SDS011;3539;47.982;12.238;2022-08-19T03:04:59;4.20;;;3.80;;
6997;SDS011;3539;47.982;12.238;2022-08-19T03:07:26;4.30;;;4.00;;
6997;SDS011;3539;47.982;12.238;2022-08-19T03:09:53;4.40;;;4.00;;
6997;SDS011;3539;47.982;12.238;2022-08-19T03:12:20;4.70;;;4.07;;
6997;SDS011;3539;47.982;12.238;2022-08-19T03:14:46;4.43;;;4.13;;
6997;SDS011;3539;47.982;12.238;2022-08-19T03:17:13;4.20;;;3.90;;
6997;SDS011;3539;47.982;12.238;2022-08-19T03:19:41;4.17;;;3.80;;
6997;SDS011;3539;47.982;12.238;2022-08-19T03:22:08;4.10;;;3.70;;
6997;SDS011;3539;47.982;12.238;2022-08-19T03:24:35;4.60;;;4.20;;
6997;SDS011;3539;47.982;12.238;2022-08-19T03:27:02;4.57;;;3.87;;
6997;SDS011;3539;47.982;12.238;2022-08-19T03:29:30;4.43;;;4.13;;
6997;SDS011;3539;47.982;12.238;2022-08-19T03:31:58;4.47;;;4.07;;
6997;SDS011;3539;47.982;12.238;2022-08-19T03:34:27;4.43;;;4.03;;
6997;SDS011;3539;47.982;12.238;2022-08-19T03:36:57;4.20;;;3.60;;
6997;SDS011;3539;47.982;12.238;2022-08-19T03:39:25;4.70;;;4.30;;
6997;SDS011;3539;47.982;12.238;2022-08-19T03:41:53;5.00;;;4.60;;
6997;SDS011;3539;47.982;12.238;2022-08-19T03:44:22;4.50;;;4.10;;
6997;SDS011;3539;47.982;12.238;2022-08-19T03:46:50;4.47;;;4.07;;
6997;SDS011;3539;47.982;12.238;2022-08-19T03:49:18;4.07;;;3.77;;
6997;SDS011;3539;47.982;12.238;2022-08-19T03:51:46;4.83;;;3.93;;
6997;SDS011;3539;47.982;12.238;2022-08-19T03:54:17;4.60;;;4.20;;
6997;SDS011;3539;47.982;12.238;2022-08-19T03:56:48;4.70;;;4.30;;
6997;SDS011;3539;47.982;12.238;2022-08-19T03:59:17;4.83;;;4.43;;
6997;SDS011;3539;47.982;12.238;2022-08-19T04:01:50;4.80;;;4.40;;
6997;SDS011;3539;47.982;12.238;2022-08-19T04:04:17;5.50;;;5.00;;
6997;SDS011;3539;47.982;12.238;2022-08-19T04:06:45;5.10;;;4.60;;
6997;SDS011;3539;47.982;12.238;2022-08-19T04:09:12;5.10;;;4.60;;
6997;SDS011;3539;47.982;12.238;2022-08-19T04:11:41;5.87;;;5.20;;
6997;SDS011;3539;47.982;12.238;2022-08-19T04:14:09;5.60;;;5.10;;
6997;SDS011;3539;47.982;12.238;2022-08-19T04:16:37;5.67;;;5.27;;
6997;SDS011;3539;47.982;12.238;2022-08-19T04:19:04;6.43;;;5.83;;
6997;SDS011;3539;47.982;12.238;2022-08-19T04:21:32;5.80;;;5.23;;
6997;SDS011;3539;47.982;12.238;2022-08-19T04:23:59;6.37;;;5.53;;
6997;SDS011;3539;47.982;12.238;2022-08-19T04:26:30;5.93;;;5.40;;
6997;SDS011;3539;47.982;12.238;2022-08-19T04:29:01;5.80;;;5.30;;
6997;SDS011;3539;47.982;12.238;2022-08-19T04:31:31;5.33;;;4.83;;
6997;SDS011;3539;47.982;12.238;2022-08-19T04:34:02;5.60;;;5.10;;
6997;SDS011;3539;47.982;12.238;2022-08-19T04:36:30;5.50;;;5.00;;
6997;SDS011;3539;47.982;12.238;2022-08-19T04:39:00;5.57;;;5.07;;
6997;SDS011;3539;47.982;12.238;2022-08-19T04:41:29;4.47;;;4.10;;
6997;SDS011;3539;47.982;12.238;2022-08-19T04:44:11;5.23;;;4.83;;
6997;SDS011;3539;47.982;12.238;2022-08-19T04:46:38;5.23;;;4.73;;
6997;SDS011;3539;47.982;12.238;2022-08-19T04:49:05;5.80;;;5.30;;
6997;SDS011;3539;47.982;12.238;2022-08-19T04:51:39;5.10;;;4.70;;
6997;SDS011;3539;47.982;12.238;2022-08-19T04:54:07;4.70;;;4.30;;
6997;SDS011;3539;47.982;12.238;2022-08-19T04:56:35;4.70;;;4.30;;
6997;SDS011;3539;47.982;12.238;2022-08-19T04:59:04;5.47;;;4.97;;
6997;SDS011;3539;47.982;12.238;2022-08-19T05:01:38;5.13;;;4.73;;
6997;SDS011;3539;47.982;12.238;2022-08-19T05:04:05;5.63;;;5.13;;
6997;SDS011;3539;47.982;12.238;2022-08-19T05:06:33;5.10;;;4.70;;
6997;SDS011;3539;47.982;12.238;2022-08-19T05:09:00;5.47;;;4.97;;
6997;SDS011;3539;47.982;12.238;2022-08-19T05:11:30;4.93;;;4.50;;
6997;SDS011;3539;47.982;12.238;2022-08-19T05:14:02;4.57;;;4.17;;
6997;SDS011;3539;47.982;12.238;2022-08-19T05:16:29;5.03;;;4.63;;
6997;SDS011;3539;47.982;12.238;2022-08-19T05:18:59;5.40;;;4.90;;
6997;SDS011;3539;47.982;12.238;2022-08-19T05:21:43;4.80;;;4.40;;
6997;SDS011;3539;47.982;12.238;2022-08-19T05:24:25;5.23;;;4.80;;
6997;SDS011;3539;47.982;12.238;2022-08-19T05:26:52;6.40;;;5.80;;
6997;SDS011;3539;47.982;12.238;2022-08-19T05:29:22;8.07;;;5.50;;
6997;SDS011;3539;47.982;12.238;2022-08-19T05:31:50;4.40;;;4.00;;
6997;SDS011;3539;47.982;12.238;2022-08-19T05:34:20;4.53;;;4.10;;
6997;SDS011;3539;47.982;12.238;2022-08-19T05:36:50;4.70;;;4.40;;
6997;SDS011;3539;47.982;12.238;2022-08-19T05:39:22;4.97;;;4.47;;
6997;SDS011;3539;47.982;12.238;2022-08-19T05:41:54;5.17;;;4.53;;
6997;SDS011;3539;47.982;12.238;2022-08-19T05:44:22;4.80;;;4.40;;
6997;SDS011;3539;47.982;12.238;2022-08-19T05:46:50;4.97;;;4.47;;
6997;SDS011;3539;47.982;12.238;2022-08-19T05:49:20;5.17;;;4.37;;
6997;SDS011;3539;47.982;12.238;2022-08-19T05:51:48;4.80;;;4.40;;
6997;SDS011;3539;47.982;12.238;2022-08-19T05:54:15;4.70;;;4.27;;
6997;SDS011;3539;47.982;12.238;2022-08-19T05:56:43;5.27;;;4.77;;
6997;SDS011;3539;47.982;12.238;2022-08-19T05:59:13;5.37;;;4.97;;
6997;SDS011;3539;47.982;12.238;2022-08-19T06:01:42;5.00;;;4.60;;
6997;SDS011;3539;47.982;12.238;2022-08-19T06:04:10;5.57;;;5.07;;
6997;SDS011;3539;47.982;12.238;2022-08-19T06:06:39;4.97;;;4.57;;
6997;SDS011;3539;47.982;12.238;2022-08-19T06:09:07;4.80;;;4.40;;
6997;SDS011;3539;47.982;12.238;2022-08-19T06:11:36;5.80;;;5.30;;
6997;SDS011;3539;47.982;12.238;2022-08-19T06:14:07;5.57;;;5.07;;
6997;SDS011;3539;47.982;12.238;2022-08-19T06:16:35;5.27;;;4.77;;
6997;SDS011;3539;47.982;12.238;2022-08-19T06:19:05;5.03;;;4.63;;
6997;SDS011;3539;47.982;12.238;2022-08-19T06:21:34;5.50;;;4.73;;
6997;SDS011;3539;47.982;12.238;2022-08-19T06:24:05;5.67;;;5.17;;
6997;SDS011;3539;47.982;12.238;2022-08-19T06:26:33;5.80;;;5.30;;
6997;SDS011;3539;47.982;12.238;2022-08-19T06:29:01;6.80;;;6.10;;
6997;SDS011;3539;47.982;12.238;2022-08-19T06:31:28;6.80;;;6.20;;
6997;SDS011;3539;47.982;12.238;2022-08-19T06:33:58;7.03;;;6.43;;
6997;SDS011;3539;47.982;12.238;2022-08-19T06:36:29;7.77;;;7.07;;
6997;SDS011;3539;47.982;12.238;2022-08-19T06:38:59;7.20;;;6.60;;
6997;SDS011;3539;47.982;12.238;2022-08-19T06:41:29;7.30;;;6.63;;
6997;SDS011;3539;47.982;12.238;2022-08-19T06:43:56;7.37;;;6.77;;
6997;SDS011;3539;47.982;12.238;2022-08-19T06:46:23;7.23;;;6.60;;
6997;SDS011;3539;47.982;12.238;2022-08-19T06:48:50;7.43;;;6.77;;
6997;SDS011;3539;47.982;12.238;2022-08-19T06:51:20;7.00;;;6.40;;
6997;SDS011;3539;47.982;12.238;2022-08-19T06:53:47;6.80;;;6.13;;
6997;SDS011;3539;47.982;12.238;2022-08-19T06:56:15;7.03;;;6.43;;
6997;SDS011;3539;47.982;12.238;2022-08-19T06:58:44;6.53;;;5.93;;
6997;SDS011;3539;47.982;12.238;2022-08-19T07:01:11;6.73;;;6.23;;
6997;SDS011;3539;47.982;12.238;2022-08-19T07:03:38;7.07;;;6.37;;
6997;SDS011;3539;47.982;12.238;2022-08-19T07:06:06;7.50;;;6.80;;
6997;SDS011;3539;47.982;12.238;2022-08-19T07:08:35;7.00;;;6.40;;
6997;SDS011;3539;47.982;12.238;2022-08-19T07:11:06;7.03;;;6.43;;
6997;SDS011;3539;47.982;12.238;2022-08-19T07:13:34;6.70;;;6.00;;
6997;SDS011;3539;47.982;12.238;2022-08-19T07:16:06;6.77;;;6.10;;
6997;SDS011;3539;47.982;12.238;2022-08-19T07:18:33;6.70;;;6.07;;
6997;SDS011;3539;47.982;12.238;2022-08-19T07:21:04;6.60;;;6.00;;
6997;SDS011;3539;47.982;12.238;2022-08-19T07:23:31;6.40;;;5.90;;
6997;SDS011;3539;47.982;12.238;2022-08-19T07:25:58;6.27;;;5.63;;
6997;SDS011;3539;47.982;12.238;2022-08-19T07:28:31;6.37;;;5.87;;
6997;SDS011;3539;47.982;12.238;2022-08-19T07:30:58;7.20;;;6.60;;
6997;SDS011;3539;47.982;12.238;2022-08-19T07:33:28;6.87;;;6.27;;
6997;SDS011;3539;47.982;12.238;2022-08-19T07:35:58;6.43;;;5.93;;
6997;SDS011;3539;47.982;12.238;2022-08-19T07:38:25;7.23;;;6.53;;
6997;SDS011;3539;47.982;12.238;2022-08-19T07:40:54;7.63;;;7.03;;
6997;SDS011;3539;47.982;12.238;2022-08-19T07:43:21;7.53;;;6.80;;
6997;SDS011;3539;47.982;12.238;2022-08-19T07:45:50;9.83;;;8.90;;
6997;SDS011;3539;47.982;12.238;2022-08-19T07:48:21;7.63;;;6.93;;
6997;SDS011;3539;47.982;12.238;2022-08-19T07:50:52;7.53;;;6.83;;
6997;SDS011;3539;47.982;12.238;2022-08-19T07:53:22;7.40;;;6.80;;
6997;SDS011;3539;47.982;12.238;2022-08-19T07:55:50;7.93;;;7.20;;
6997;SDS011;3539;47.982;12.238;2022-08-19T07:58:19;9.13;;;7.77;;
6997;SDS011;3539;47.982;12.238;2022-08-19T08:00:51;7.70;;;7.00;;
6997;SDS011;3539;47.982;12.238;2022-08-19T08:03:20;8.30;;;7.50;;
6997;SDS011;3539;47.982;12.238;2022-08-19T08:06:12;8.33;;;7.67;;
6997;SDS011;3539;47.982;12.238;2022-08-19T08:08:59;9.17;;;8.23;;
6997;SDS011;3539;47.982;12.238;2022-08-19T08:11:41;10.20;;;9.30;;
6997;SDS011;3539;47.982;12.238;2022-08-19T08:14:15;9.77;;;8.87;;
6997;SDS011;3539;47.982;12.238;2022-08-19T08:16:44;9.93;;;9.00;;
6997;SDS011;3539;47.982;12.238;2022-08-19T08:19:12;9.30;;;8.40;;
6997;SDS011;3539;47.982;12.238;2022-08-19T08:21:43;11.10;;;10.00;;
6997;SDS011;3539;47.982;12.238;2022-08-19T08:24:11;9.63;;;8.80;;
6997;SDS011;3539;47.982;12.238;2022-08-19T08:26:41;9.97;;;9.17;;
6997;SDS011;3539;47.982;12.238;2022-08-19T08:29:09;8.73;;;8.03;;
6997;SDS011;3539;47.982;12.238;2022-08-19T08:31:37;9.80;;;9.00;;
6997;SDS011;3539;47.982;12.238;2022-08-19T08:34:05;10.90;;;9.90;;
6997;SDS011;3539;47.982;12.238;2022-08-19T08:36:32;10.93;;;9.93;;
6997;SDS011;3539;47.982;12.238;2022-08-19T08:39:01;10.87;;;8.67;;
6997;SDS011;3539;47.982;12.238;2022-08-19T08:41:30;11.40;;;10.30;;
6997;SDS011;3539;47.982;12.238;2022-08-19T08:44:00;11.13;;;9.33;;
6997;SDS011;3539;47.982;12.238;2022-08-19T08:46:30;10.53;;;9.47;;
6997;SDS011;3539;47.982;12.238;2022-08-19T08:49:04;11.13;;;10.03;;
6997;SDS011;3539;47.982;12.238;2022-08-19T08:51:34;9.17;;;8.37;;
6997;SDS011;3539;47.982;12.238;2022-08-19T08:54:06;9.57;;;8.57;;
6997;SDS011;3539;47.982;12.238;2022-08-19T08:56:34;9.50;;;8.60;;
6997;SDS011;3539;47.982;12.238;2022-08-19T08:59:03;9.17;;;7.60;;
6997;SDS011;3539;47.982;12.238;2022-08-19T09:01:33;8.13;;;7.37;;
6997;SDS011;3539;47.982;12.238;2022-08-19T09:04:02;8.80;;;8.10;;
6997;SDS011;3539;47.982;12.238;2022-08-19T09:06:33;8.00;;;7.27;;
6997;SDS011;3539;47.982;12.238;2022-08-19T09:09:04;7.37;;;6.77;;
6997;SDS011;3539;47.982;12.238;2022-08-19T09:11:43;9.00;;;8.20;;
6997;SDS011;3539;47.982;12.238;2022-08-19T09:14:20;9.27;;;8.37;;
6997;SDS011;3539;47.982;12.238;2022-08-19T09:16:55;9.07;;;8.23;;
6997;SDS011;3539;47.982;12.238;2022-08-19T09:19:23;8.90;;;8.13;;
6997;SDS011;3539;47.982;12.238;2022-08-19T09:21:50;9.17;;;8.33;;
6997;SDS011;3539;47.982;12.238;2022-08-19T09:24:19;9.53;;;8.57;;
6997;SDS011;3539;47.982;12.238;2022-08-19T09:26:47;9.50;;;8.67;;
6997;SDS011;3539;47.982;12.238;2022-08-19T09:29:19;9.67;;;8.67;;
6997;SDS011;3539;47.982;12.238;2022-08-19T09:31:47;9.17;;;8.27;;
6997;SDS011;3539;47.982;12.238;2022-08-19T09:34:14;9.30;;;8.33;;
6997;SDS011;3539;47.982;12.238;2022-08-19T09:36:44;8.33;;;7.63;;
6997;SDS011;3539;47.982;12.238;2022-08-19T09:39:12;12.93;;;11.63;;
6997;SDS011;3539;47.982;12.238;2022-08-19T09:41:41;8.03;;;7.33;;
6997;SDS011;3539;47.982;12.238;2022-08-19T09:44:08;7.63;;;6.93;;
6997;SDS011;3539;47.982;12.238;2022-08-19T09:46:37;7.33;;;6.70;;
6997;SDS011;3539;47.982;12.238;2022-08-19T09:49:04;6.43;;;5.87;;
6997;SDS011;3539;47.982;12.238;2022-08-19T09:51:31;6.90;;;6.30;;
6997;SDS011;3539;47.982;12.238;2022-08-19T09:54:00;6.33;;;5.83;;
6997;SDS011;3539;47.982;12.238;2022-08-19T09:56:28;6.53;;;6.03;;
6997;SDS011;3539;47.982;12.238;2022-08-19T09:58:59;6.13;;;5.63;;
6997;SDS011;3539;47.982;12.238;2022-08-19T10:01:27;7.27;;;5.30;;
6997;SDS011;3539;47.982;12.238;2022-08-19T10:03:57;6.10;;;5.50;;
6997;SDS011;3539;47.982;12.238;2022-08-19T10:06:25;6.70;;;5.63;;
6997;SDS011;3539;47.982;12.238;2022-08-19T10:08:56;5.90;;;5.40;;
6997;SDS011;3539;47.982;12.238;2022-08-19T10:11:23;5.97;;;5.47;;
6997;SDS011;3539;47.982;12.238;2022-08-19T10:13:51;6.53;;;5.93;;
6997;SDS011;3539;47.982;12.238;2022-08-19T10:16:21;6.07;;;5.47;;
6997;SDS011;3539;47.982;12.238;2022-08-19T10:18:50;6.57;;;5.70;;
6997;SDS011;3539;47.982;12.238;2022-08-19T10:21:18;5.17;;;4.77;;
6997;SDS011;3539;47.982;12.238;2022-08-19T10:23:48;5.40;;;5.00;;
6997;SDS011;3539;47.982;12.238;2022-08-19T10:26:17;5.50;;;5.10;;
6997;SDS011;3539;47.982;12.238;2022-08-19T10:28:46;5.70;;;5.20;;
6997;SDS011;3539;47.982;12.238;2022-08-19T10:31:14;6.90;;;6.30;;
6997;SDS011;3539;47.982;12.238;2022-08-19T10:33:44;6.00;;;5.50;;
6997;SDS011;3539;47.982;12.238;2022-08-19T10:36:12;5.90;;;5.40;;
6997;SDS011;3539;47.982;12.238;2022-08-19T10:38:42;5.77;;;5.37;;
6997;SDS011;3539;47.982;12.238;2022-08-19T10:41:15;6.70;;;6.10;;
6997;SDS011;3539;47.982;12.238;2022-08-19T10:43:44;6.37;;;5.83;;
6997;SDS011;3539;47.982;12.238;2022-08-19T10:46:12;6.20;;;5.70;;
6997;SDS011;3539;47.982;12.238;2022-08-19T10:48:40;6.17;;;5.23;;
6997;SDS011;3539;47.982;12.238;2022-08-19T10:51:08;5.60;;;5.20;;
6997;SDS011;3539;47.982;12.238;2022-08-19T10:53:53;5.10;;;4.70;;
6997;SDS011;3539;47.982;12.238;2022-08-19T10:56:20;4.63;;;4.23;;
6997;SDS011;3539;47.982;12.238;2022-08-19T10:59:04;4.97;;;4.47;;
6997;SDS011;3539;47.982;12.238;2022-08-19T11:01:31;5.17;;;4.70;;
6997;SDS011;3539;47.982;12.238;2022-08-19T11:03:59;5.77;;;5.27;;
6997;SDS011;3539;47.982;12.238;2022-08-19T11:06:28;4.57;;;4.27;;
6997;SDS011;3539;47.982;12.238;2022-08-19T11:08:55;5.07;;;4.50;;
6997;SDS011;3539;47.982;12.238;2022-08-19T11:11:22;5.10;;;4.27;;
6997;SDS011;3539;47.982;12.238;2022-08-19T11:13:49;4.63;;;4.23;;
6997;SDS011;3539;47.982;12.238;2022-08-19T11:16:17;5.20;;;4.60;;
6997;SDS011;3539;47.982;12.238;2022-08-19T11:18:49;5.63;;;5.13;;
6997;SDS011;3539;47.982;12.238;2022-08-19T11:21:18;5.23;;;4.73;;
6997;SDS011;3539;47.982;12.238;2022-08-19T11:23:50;4.77;;;4.47;;
6997;SDS011;3539;47.982;12.238;2022-08-19T11:26:18;5.60;;;5.10;;
6997;SDS011;3539;47.982;12.238;2022-08-19T11:28:45;4.93;;;4.53;;
6997;SDS011;3539;47.982;12.238;2022-08-19T11:31:13;5.57;;;5.10;;
6997;SDS011;3539;47.982;12.238;2022-08-19T11:33:43;5.33;;;4.93;;
6997;SDS011;3539;47.982;12.238;2022-08-19T11:36:11;5.60;;;4.90;;
6997;SDS011;3539;47.982;12.238;2022-08-19T11:38:38;4.90;;;4.50;;
6997;SDS011;3539;47.982;12.238;2022-08-19T11:41:06;5.33;;;4.83;;
6997;SDS011;3539;47.982;12.238;2022-08-19T11:43:33;6.30;;;5.77;;
6997;SDS011;3539;47.982;12.238;2022-08-19T11:46:03;5.43;;;4.93;;
6997;SDS011;3539;47.982;12.238;2022-08-19T11:48:31;5.87;;;5.33;;
6997;SDS011;3539;47.982;12.238;2022-08-19T11:50:58;6.00;;;5.50;;
6997;SDS011;3539;47.982;12.238;2022-08-19T11:53:25;5.50;;;5.00;;
6997;SDS011;3539;47.982;12.238;2022-08-19T11:55:52;5.13;;;4.73;;
6997;SDS011;3539;47.982;12.238;2022-08-19T11:58:22;5.37;;;4.97;;
6997;SDS011;3539;47.982;12.238;2022-08-19T12:00:49;5.40;;;4.90;;
6997;SDS011;3539;47.982;12.238;2022-08-19T12:03:17;11.40;;;5.67;;
6997;SDS011;3539;47.982;12.238;2022-08-19T12:05:44;6.30;;;5.67;;
6997;SDS011;3539;47.982;12.238;2022-08-19T12:08:11;5.53;;;5.03;;
6997;SDS011;3539;47.982;12.238;2022-08-19T12:10:39;5.15;;;4.75;;
6997;SDS011;3539;47.982;12.238;2022-08-19T12:13:07;5.00;;;4.60;;
6997;SDS011;3539;47.982;12.238;2022-08-19T12:15:36;5.63;;;5.22;;
6997;SDS011;3539;47.982;12.238;2022-08-19T12:18:05;5.75;;;5.13;;
6997;SDS011;3539;47.982;12.238;2022-08-19T12:20:33;5.80;;;5.30;;
6997;SDS011;3539;47.982;12.238;2022-08-19T12:23:00;6.22;;;5.63;;
6997;SDS011;3539;47.982;12.238;2022-08-19T12:25:27;5.13;;;4.72;;
6997;SDS011;3539;47.982;12.238;2022-08-19T12:27:54;5.13;;;4.63;;
6997;SDS011;3539;47.982;12.238;2022-08-19T12:30:21;4.80;;;4.40;;
6997;SDS011;3539;47.982;12.238;2022-08-19T12:32:49;5.47;;;4.97;;
6997;SDS011;3539;47.982;12.238;2022-08-19T12:35:16;5.37;;;4.87;;
6997;SDS011;3539;47.982;12.238;2022-08-19T12:37:45;5.77;;;5.27;;
6997;SDS011;3539;47.982;12.238;2022-08-19T12:40:12;5.72;;;5.10;;
6997;SDS011;3539;47.982;12.238;2022-08-19T12:42:39;6.13;;;5.63;;
6997;SDS011;3539;47.982;12.238;2022-08-19T12:45:07;6.77;;;6.13;;
6997;SDS011;3539;47.982;12.238;2022-08-19T12:47:35;6.87;;;6.23;;
6997;SDS011;3539;47.982;12.238;2022-08-19T12:50:03;6.97;;;6.37;;
6997;SDS011;3539;47.982;12.238;2022-08-19T12:52:34;6.57;;;5.97;;
6997;SDS011;3539;47.982;12.238;2022-08-19T12:55:02;7.30;;;6.60;;
6997;SDS011;3539;47.982;12.238;2022-08-19T12:57:30;7.67;;;6.40;;
6997;SDS011;3539;47.982;12.238;2022-08-19T12:59:58;6.70;;;6.10;;
6997;SDS011;3539;47.982;12.238;2022-08-19T13:02:26;6.43;;;5.83;;
6997;SDS011;3539;47.982;12.238;2022-08-19T13:04:53;6.30;;;5.80;;
6997;SDS011;3539;47.982;12.238;2022-08-19T13:07:21;7.23;;;6.63;;
6997;SDS011;3539;47.982;12.238;2022-08-19T13:09:47;7.23;;;6.53;;
6997;SDS011;3539;47.982;12.238;2022-08-19T13:12:17;7.60;;;6.90;;
6997;SDS011;3539;47.982;12.238;2022-08-19T13:14:45;6.93;;;6.33;;
6997;SDS011;3539;47.982;12.238;2022-08-19T13:17:16;8.20;;;6.90;;
6997;SDS011;3539;47.982;12.238;2022-08-19T13:19:42;7.87;;;7.07;;
6997;SDS011;3539;47.982;12.238;2022-08-19T13:22:09;7.70;;;7.00;;
6997;SDS011;3539;47.982;12.238;2022-08-19T13:24:38;7.90;;;6.93;;
6997;SDS011;3539;47.982;12.238;2022-08-19T13:27:05;7.53;;;6.73;;
6997;SDS011;3539;47.982;12.238;2022-08-19T13:29:32;7.27;;;6.57;;
6997;SDS011;3539;47.982;12.238;2022-08-19T13:32:17;7.13;;;6.43;;
6997;SDS011;3539;47.982;12.238;2022-08-19T13:35:01;7.30;;;6.47;;
6997;SDS011;3539;47.982;12.238;2022-08-19T13:37:27;6.83;;;6.23;;
6997;SDS011;3539;47.982;12.238;2022-08-19T13:40:09;6.73;;;6.13;;
6997;SDS011;3539;47.982;12.238;2022-08-19T13:42:39;6.20;;;5.60;;
6997;SDS011;3539;47.982;12.238;2022-08-19T13:45:06;7.13;;;6.53;;
6997;SDS011;3539;47.982;12.238;2022-08-19T13:47:34;8.30;;;7.30;;
6997;SDS011;3539;47.982;12.238;2022-08-19T13:50:04;8.83;;;8.03;;
6997;SDS011;3539;47.982;12.238;2022-08-19T13:52:31;9.23;;;8.33;;
6997;SDS011;3539;47.982;12.238;2022-08-19T13:54:58;9.63;;;8.63;;
6997;SDS011;3539;47.982;12.238;2022-08-19T13:57:26;9.60;;;8.13;;
6997;SDS011;3539;47.982;12.238;2022-08-19T13:59:53;8.67;;;7.87;;
6997;SDS011;3539;47.982;12.238;2022-08-19T14:02:20;8.30;;;7.50;;
6997;SDS011;3539;47.982;12.238;2022-08-19T14:04:46;7.53;;;6.73;;
6997;SDS011;3539;47.982;12.238;2022-08-19T14:07:13;6.93;;;6.33;;
6997;SDS011;3539;47.982;12.238;2022-08-19T14:09:40;6.67;;;6.07;;
6997;SDS011;3539;47.982;12.238;2022-08-19T14:12:07;6.77;;;6.13;;
6997;SDS011;3539;47.982;12.238;2022-08-19T14:14:37;6.70;;;6.10;;
6997;SDS011;3539;47.982;12.238;2022-08-19T14:17:05;6.50;;;6.00;;
6997;SDS011;3539;47.982;12.238;2022-08-19T14:19:32;5.83;;;5.33;;
6997;SDS011;3539;47.982;12.238;2022-08-19T14:21:59;5.77;;;5.27;;
6997;SDS011;3539;47.982;12.238;2022-08-19T14:24:30;5.90;;;5.13;;
6997;SDS011;3539;47.982;12.238;2022-08-19T14:26:57;5.40;;;4.90;;
6997;SDS011;3539;47.982;12.238;2022-08-19T14:29:24;5.30;;;4.80;;
6997;SDS011;3539;47.982;12.238;2022-08-19T14:31:53;5.83;;;5.30;;
6997;SDS011;3539;47.982;12.238;2022-08-19T14:34:21;4.83;;;4.33;;
6997;SDS011;3539;47.982;12.238;2022-08-19T14:36:48;4.47;;;4.07;;
6997;SDS011;3539;47.982;12.238;2022-08-19T14:39:15;4.90;;;4.50;;
6997;SDS011;3539;47.982;12.238;2022-08-19T14:41:41;5.00;;;4.20;;
6997;SDS011;3539;47.982;12.238;2022-08-19T14:44:08;4.47;;;4.07;;
6997;SDS011;3539;47.982;12.238;2022-08-19T14:46:37;3.23;;;3.03;;
6997;SDS011;3539;47.982;12.238;2022-08-19T14:49:06;3.83;;;2.90;;
6997;SDS011;3539;47.982;12.238;2022-08-19T14:51:33;4.13;;;3.20;;
6997;SDS011;3539;47.982;12.238;2022-08-19T14:54:00;4.67;;;2.87;;
6997;SDS011;3539;47.982;12.238;2022-08-19T14:56:27;3.00;;;2.70;;
6997;SDS011;3539;47.982;12.238;2022-08-19T14:58:55;3.30;;;3.00;;
6997;SDS011;3539;47.982;12.238;2022-08-19T15:01:25;3.37;;;3.10;;
6997;SDS011;3539;47.982;12.238;2022-08-19T15:03:52;3.73;;;2.80;;
6997;SDS011;3539;47.982;12.238;2022-08-19T15:06:21;2.70;;;2.50;;
6997;SDS011;3539;47.982;12.238;2022-08-19T15:08:48;2.70;;;2.50;;